sensor_id;sensor_type;location;lat;lon;timestamp;pressure;altitude;pressure_sealevel;temperature;humidity
73063;BME280;61230;46.328;19.972;2023-08-12T00:00:03;101142.66;;;15.92;94.11
73063;BME280;61230;46.328;19.972;2023-08-12T00:02:40;101153.00;;;16.03;92.25
73063;BME280;61230;46.328;19.972;2023-08-12T00:05:09;101155.19;;;16.00;91.45
73063;BME280;61230;46.328;19.972;2023-08-12T00:07:40;101160.31;;;16.01;90.64
73063;BME280;61230;46.328;19.972;2023-08-12T00:10:12;101155.44;;;15.89;91.46
73063;BME280;61230;46.328;19.972;2023-08-12T00:12:40;101163.59;;;15.95;92.19
73063;BME280;61230;46.328;19.972;2023-08-12T00:15:08;101164.75;;;15.93;92.33
73063;BME280;61230;46.328;19.972;2023-08-12T00:17:37;101166.72;;;15.91;92.53
73063;BME280;61230;46.328;19.972;2023-08-12T00:20:10;101167.97;;;15.79;92.11
73063;BME280;61230;46.328;19.972;2023-08-12T00:22:39;101163.34;;;15.81;93.11
73063;BME280;61230;46.328;19.972;2023-08-12T00:25:07;101171.16;;;15.82;93.38
73063;BME280;61230;46.328;19.972;2023-08-12T00:27:35;101155.56;;;15.62;92.82
73063;BME280;61230;46.328;19.972;2023-08-12T00:30:05;101168.22;;;15.68;94.53
73063;BME280;61230;46.328;19.972;2023-08-12T00:32:32;101164.53;;;15.43;93.37
73063;BME280;61230;46.328;19.972;2023-08-12T00:35:00;101163.25;;;15.47;94.97
73063;BME280;61230;46.328;19.972;2023-08-12T00:37:29;101163.03;;;15.40;95.01
73063;BME280;61230;46.328;19.972;2023-08-12T00:39:56;101163.88;;;15.41;95.63
73063;BME280;61230;46.328;19.972;2023-08-12T00:42:24;101158.34;;;15.34;95.47
73063;BME280;61230;46.328;19.972;2023-08-12T00:44:52;101165.09;;;15.29;96.28
73063;BME280;61230;46.328;19.972;2023-08-12T00:47:20;101161.34;;;15.04;98.53
73063;BME280;61230;46.328;19.972;2023-08-12T00:49:48;101158.94;;;15.28;98.56
73063;BME280;61230;46.328;19.972;2023-08-12T00:52:17;101160.50;;;15.39;98.41
73063;BME280;61230;46.328;19.972;2023-08-12T00:54:45;101114.56;;;15.13;99.65
73063;BME280;61230;46.328;19.972;2023-08-12T00:57:13;101153.03;;;15.34;100.00
73063;BME280;61230;46.328;19.972;2023-08-12T00:59:43;101157.50;;;15.34;100.00
73063;BME280;61230;46.328;19.972;2023-08-12T01:02:12;101145.31;;;15.23;100.00
73063;BME280;61230;46.328;19.972;2023-08-12T01:04:40;101159.97;;;15.35;99.83
73063;BME280;61230;46.328;19.972;2023-08-12T01:07:08;101163.47;;;15.36;98.40
73063;BME280;61230;46.328;19.972;2023-08-12T01:09:36;101158.38;;;15.42;99.25
73063;BME280;61230;46.328;19.972;2023-08-12T01:12:16;101156.53;;;15.35;99.57
73063;BME280;61230;46.328;19.972;2023-08-12T01:14:56;101116.69;;;15.09;99.98
73063;BME280;61230;46.328;19.972;2023-08-12T01:17:27;101155.97;;;15.31;98.62
73063;BME280;61230;46.328;19.972;2023-08-12T01:19:56;101149.72;;;15.32;98.02
73063;BME280;61230;46.328;19.972;2023-08-12T01:22:27;101152.66;;;15.29;97.93
73063;BME280;61230;46.328;19.972;2023-08-12T01:24:55;101150.00;;;15.29;97.52
73063;BME280;61230;46.328;19.972;2023-08-12T01:27:22;101150.31;;;15.26;97.74
73063;BME280;61230;46.328;19.972;2023-08-12T01:29:51;101153.03;;;15.17;97.94
73063;BME280;61230;46.328;19.972;2023-08-12T01:32:36;101152.06;;;15.18;98.21
73063;BME280;61230;46.328;19.972;2023-08-12T01:35:46;101154.19;;;15.14;98.07
73063;BME280;61230;46.328;19.972;2023-08-12T01:38:05;101112.16;;;14.84;98.14
73063;BME280;61230;46.328;19.972;2023-08-12T01:40:35;101160.25;;;15.07;98.92
73063;BME280;61230;46.328;19.972;2023-08-12T01:43:04;101157.72;;;15.05;99.47
73063;BME280;61230;46.328;19.972;2023-08-12T01:45:31;101162.19;;;15.05;100.00
73063;BME280;61230;46.328;19.972;2023-08-12T01:47:59;101157.72;;;15.05;100.00
73063;BME280;61230;46.328;19.972;2023-08-12T01:50:27;101156.38;;;15.01;100.00
73063;BME280;61230;46.328;19.972;2023-08-12T01:52:55;101162.97;;;14.97;100.00
73063;BME280;61230;46.328;19.972;2023-08-12T01:55:22;101133.19;;;14.85;99.69
73063;BME280;61230;46.328;19.972;2023-08-12T01:57:50;101151.22;;;15.00;99.77
73063;BME280;61230;46.328;19.972;2023-08-12T02:00:18;101157.50;;;14.98;100.00
73063;BME280;61230;46.328;19.972;2023-08-12T02:02:45;101153.13;;;14.89;100.00
73063;BME280;61230;46.328;19.972;2023-08-12T02:05:15;101106.06;;;14.56;100.00
73063;BME280;61230;46.328;19.972;2023-08-12T02:07:42;101155.81;;;14.80;100.00
73063;BME280;61230;46.328;19.972;2023-08-12T02:10:10;101154.78;;;14.73;100.00
73063;BME280;61230;46.328;19.972;2023-08-12T02:12:38;101110.59;;;14.46;100.00
73063;BME280;61230;46.328;19.972;2023-08-12T02:15:06;101155.75;;;14.72;100.00
73063;BME280;61230;46.328;19.972;2023-08-12T02:17:33;101160.50;;;14.68;100.00
73063;BME280;61230;46.328;19.972;2023-08-12T02:20:01;101130.91;;;14.55;100.00
73063;BME280;61230;46.328;19.972;2023-08-12T02:22:31;101156.50;;;14.64;100.00
73063;BME280;61230;46.328;19.972;2023-08-12T02:24:58;101158.59;;;14.61;100.00
73063;BME280;61230;46.328;19.972;2023-08-12T02:27:27;101160.88;;;14.56;100.00
73063;BME280;61230;46.328;19.972;2023-08-12T02:29:55;101159.75;;;14.58;100.00
73063;BME280;61230;46.328;19.972;2023-08-12T02:32:22;101161.16;;;14.53;100.00
73063;BME280;61230;46.328;19.972;2023-08-12T02:34:50;101155.87;;;14.53;100.00
73063;BME280;61230;46.328;19.972;2023-08-12T02:37:18;101158.50;;;14.53;100.00
73063;BME280;61230;46.328;19.972;2023-08-12T02:39:46;101113.62;;;14.24;100.00
73063;BME280;61230;46.328;19.972;2023-08-12T02:42:13;101159.78;;;14.49;100.00
73063;BME280;61230;46.328;19.972;2023-08-12T02:44:41;101155.75;;;14.45;100.00
73063;BME280;61230;46.328;19.972;2023-08-12T02:47:08;101117.69;;;14.18;100.00
73063;BME280;61230;46.328;19.972;2023-08-12T02:49:37;101164.81;;;14.42;100.00
73063;BME280;61230;46.328;19.972;2023-08-12T02:52:05;101156.75;;;14.44;100.00
73063;BME280;61230;46.328;19.972;2023-08-12T02:54:32;101154.47;;;14.49;100.00
73063;BME280;61230;46.328;19.972;2023-08-12T02:57:00;101156.88;;;14.42;100.00
73063;BME280;61230;46.328;19.972;2023-08-12T02:59:28;101161.03;;;14.45;100.00
73063;BME280;61230;46.328;19.972;2023-08-12T03:01:57;101163.69;;;14.45;100.00
73063;BME280;61230;46.328;19.972;2023-08-12T03:04:25;101163.56;;;14.46;100.00
73063;BME280;61230;46.328;19.972;2023-08-12T03:06:53;101153.81;;;14.47;100.00
73063;BME280;61230;46.328;19.972;2023-08-12T03:09:21;101153.72;;;14.38;100.00
73063;BME280;61230;46.328;19.972;2023-08-12T03:11:49;101157.88;;;14.41;100.00
73063;BME280;61230;46.328;19.972;2023-08-12T03:14:16;101170.00;;;14.44;100.00
73063;BME280;61230;46.328;19.972;2023-08-12T03:16:45;101168.75;;;14.38;100.00
73063;BME280;61230;46.328;19.972;2023-08-12T03:19:12;101163.34;;;14.30;100.00
73063;BME280;61230;46.328;19.972;2023-08-12T03:21:40;101151.38;;;14.26;100.00
73063;BME280;61230;46.328;19.972;2023-08-12T03:24:08;101163.59;;;14.36;100.00
73063;BME280;61230;46.328;19.972;2023-08-12T03:26:36;101174.06;;;14.38;100.00
73063;BME280;61230;46.328;19.972;2023-08-12T03:29:05;101160.81;;;14.28;100.00
73063;BME280;61230;46.328;19.972;2023-08-12T03:31:34;101142.63;;;14.16;100.00
73063;BME280;61230;46.328;19.972;2023-08-12T03:34:02;101170.44;;;14.29;100.00
73063;BME280;61230;46.328;19.972;2023-08-12T03:36:30;101174.34;;;14.25;100.00
73063;BME280;61230;46.328;19.972;2023-08-12T03:38:58;101174.91;;;14.29;100.00
73063;BME280;61230;46.328;19.972;2023-08-12T03:41:26;101174.91;;;14.29;100.00
73063;BME280;61230;46.328;19.972;2023-08-12T03:43:54;101177.84;;;14.26;100.00
73063;BME280;61230;46.328;19.972;2023-08-12T03:46:22;101185.09;;;14.24;100.00
73063;BME280;61230;46.328;19.972;2023-08-12T03:48:51;101179.63;;;14.25;100.00
73063;BME280;61230;46.328;19.972;2023-08-12T03:51:18;101178.78;;;13.98;100.00
73063;BME280;61230;46.328;19.972;2023-08-12T03:53:46;101147.47;;;13.83;100.00
73063;BME280;61230;46.328;19.972;2023-08-12T03:56:13;101185.84;;;14.07;100.00
73063;BME280;61230;46.328;19.972;2023-08-12T03:58:43;101185.00;;;14.06;100.00
73063;BME280;61230;46.328;19.972;2023-08-12T04:01:11;101153.16;;;13.98;100.00
73063;BME280;61230;46.328;19.972;2023-08-12T04:03:39;101140.75;;;13.99;100.00
73063;BME280;61230;46.328;19.972;2023-08-12T04:06:06;101098.53;;;13.70;100.00
73063;BME280;61230;46.328;19.972;2023-08-12T04:08:34;101188.28;;;14.27;100.00
73063;BME280;61230;46.328;19.972;2023-08-12T04:11:02;101193.25;;;14.30;100.00
73063;BME280;61230;46.328;19.972;2023-08-12T04:13:29;101189.50;;;14.43;100.00
73063;BME280;61230;46.328;19.972;2023-08-12T04:15:57;101188.91;;;14.49;100.00
73063;BME280;61230;46.328;19.972;2023-08-12T04:18:25;101192.50;;;14.57;100.00
73063;BME280;61230;46.328;19.972;2023-08-12T04:20:53;101193.25;;;14.67;100.00
73063;BME280;61230;46.328;19.972;2023-08-12T04:23:21;101193.13;;;14.69;100.00
73063;BME280;61230;46.328;19.972;2023-08-12T04:25:50;101196.16;;;14.74;100.00
73063;BME280;61230;46.328;19.972;2023-08-12T04:28:17;101200.19;;;14.78;100.00
73063;BME280;61230;46.328;19.972;2023-08-12T04:30:48;101194.97;;;14.86;100.00
73063;BME280;61230;46.328;19.972;2023-08-12T04:33:19;101201.88;;;14.96;100.00
73063;BME280;61230;46.328;19.972;2023-08-12T04:35:47;101201.56;;;15.00;100.00
73063;BME280;61230;46.328;19.972;2023-08-12T04:38:15;101198.03;;;15.09;100.00
73063;BME280;61230;46.328;19.972;2023-08-12T04:40:43;101205.94;;;15.18;100.00
73063;BME280;61230;46.328;19.972;2023-08-12T04:43:11;101161.69;;;15.01;100.00
73063;BME280;61230;46.328;19.972;2023-08-12T04:45:40;101197.94;;;15.36;100.00
73063;BME280;61230;46.328;19.972;2023-08-12T04:48:11;101203.19;;;15.45;100.00
73063;BME280;61230;46.328;19.972;2023-08-12T04:50:41;101203.56;;;15.50;100.00
73063;BME280;61230;46.328;19.972;2023-08-12T04:53:09;101202.34;;;15.63;100.00
73063;BME280;61230;46.328;19.972;2023-08-12T04:55:37;101204.94;;;15.72;100.00
73063;BME280;61230;46.328;19.972;2023-08-12T04:58:05;101201.31;;;15.81;99.82
73063;BME280;61230;46.328;19.972;2023-08-12T05:00:33;101165.44;;;15.69;98.27
73063;BME280;61230;46.328;19.972;2023-08-12T05:03:01;101204.69;;;16.09;98.22
73063;BME280;61230;46.328;19.972;2023-08-12T05:05:29;101208.62;;;16.05;98.54
73063;BME280;61230;46.328;19.972;2023-08-12T05:07:56;101207.66;;;16.06;98.66
73063;BME280;61230;46.328;19.972;2023-08-12T05:10:24;101213.34;;;16.19;98.65
73063;BME280;61230;46.328;19.972;2023-08-12T05:12:52;101203.31;;;16.39;97.98
73063;BME280;61230;46.328;19.972;2023-08-12T05:15:22;101205.28;;;16.54;96.83
73063;BME280;61230;46.328;19.972;2023-08-12T05:17:50;101207.16;;;16.70;96.18
73063;BME280;61230;46.328;19.972;2023-08-12T05:20:18;101213.84;;;16.82;96.33
73063;BME280;61230;46.328;19.972;2023-08-12T05:22:46;101210.22;;;16.99;95.37
73063;BME280;61230;46.328;19.972;2023-08-12T05:25:14;101206.22;;;17.03;95.49
73063;BME280;61230;46.328;19.972;2023-08-12T05:27:41;101205.34;;;16.79;96.09
73063;BME280;61230;46.328;19.972;2023-08-12T05:30:09;101208.25;;;17.09;96.09
73063;BME280;61230;46.328;19.972;2023-08-12T05:32:37;101206.44;;;17.34;94.72
73063;BME280;61230;46.328;19.972;2023-08-12T05:35:05;101210.63;;;17.45;94.84
73063;BME280;61230;46.328;19.972;2023-08-12T05:37:33;101213.81;;;17.64;94.15
73063;BME280;61230;46.328;19.972;2023-08-12T05:40:01;101219.09;;;17.48;93.72
73063;BME280;61230;46.328;19.972;2023-08-12T05:42:28;101217.25;;;17.49;93.80
73063;BME280;61230;46.328;19.972;2023-08-12T05:44:56;101220.44;;;17.68;93.82
73063;BME280;61230;46.328;19.972;2023-08-12T05:47:24;101214.62;;;17.89;93.04
73063;BME280;61230;46.328;19.972;2023-08-12T05:49:51;101207.91;;;18.17;92.31
73063;BME280;61230;46.328;19.972;2023-08-12T05:52:18;101210.34;;;18.35;91.46
73063;BME280;61230;46.328;19.972;2023-08-12T05:54:46;101209.97;;;18.54;90.59
73063;BME280;61230;46.328;19.972;2023-08-12T05:57:14;101211.41;;;18.73;90.51
73063;BME280;61230;46.328;19.972;2023-08-12T05:59:41;101215.16;;;18.86;89.29
73063;BME280;61230;46.328;19.972;2023-08-12T06:02:09;101214.78;;;18.98;89.49
73063;BME280;61230;46.328;19.972;2023-08-12T06:04:37;101216.81;;;19.18;88.54
73063;BME280;61230;46.328;19.972;2023-08-12T06:07:05;101219.53;;;19.33;88.40
73063;BME280;61230;46.328;19.972;2023-08-12T06:09:32;101223.00;;;19.41;83.93
73063;BME280;61230;46.328;19.972;2023-08-12T06:12:00;101222.47;;;19.46;82.12
73063;BME280;61230;46.328;19.972;2023-08-12T06:14:28;101223.94;;;19.71;82.24
73063;BME280;61230;46.328;19.972;2023-08-12T06:16:55;101218.56;;;19.94;82.85
73063;BME280;61230;46.328;19.972;2023-08-12T06:19:25;101215.53;;;20.12;81.80
73063;BME280;61230;46.328;19.972;2023-08-12T06:21:53;101209.22;;;20.27;78.93
73063;BME280;61230;46.328;19.972;2023-08-12T06:24:20;101203.88;;;20.42;79.22
73063;BME280;61230;46.328;19.972;2023-08-12T06:26:48;101213.09;;;20.54;77.35
73063;BME280;61230;46.328;19.972;2023-08-12T06:29:16;101201.28;;;20.63;77.43
73063;BME280;61230;46.328;19.972;2023-08-12T06:31:44;101195.31;;;20.82;77.76
73063;BME280;61230;46.328;19.972;2023-08-12T06:34:11;101210.06;;;21.07;75.43
73063;BME280;61230;46.328;19.972;2023-08-12T06:36:39;101207.78;;;21.26;75.88
73063;BME280;61230;46.328;19.972;2023-08-12T06:39:06;101206.06;;;21.39;75.03
73063;BME280;61230;46.328;19.972;2023-08-12T06:41:35;101199.78;;;21.53;74.60
73063;BME280;61230;46.328;19.972;2023-08-12T06:44:03;101204.03;;;21.69;73.78
73063;BME280;61230;46.328;19.972;2023-08-12T06:46:31;101206.63;;;21.84;72.66
73063;BME280;61230;46.328;19.972;2023-08-12T06:48:59;101209.63;;;21.95;71.87
73063;BME280;61230;46.328;19.972;2023-08-12T06:51:26;101206.25;;;22.14;70.69
73063;BME280;61230;46.328;19.972;2023-08-12T06:53:54;101213.56;;;22.27;69.26
73063;BME280;61230;46.328;19.972;2023-08-12T06:56:22;101226.41;;;22.38;68.47
73063;BME280;61230;46.328;19.972;2023-08-12T06:58:49;101219.66;;;22.49;68.40
73063;BME280;61230;46.328;19.972;2023-08-12T07:01:17;101217.72;;;22.64;68.12
73063;BME280;61230;46.328;19.972;2023-08-12T07:03:45;101201.00;;;22.68;67.90
73063;BME280;61230;46.328;19.972;2023-08-12T07:06:12;101218.88;;;22.55;61.12
73063;BME280;61230;46.328;19.972;2023-08-12T07:08:40;101220.69;;;22.88;62.63
73063;BME280;61230;46.328;19.972;2023-08-12T07:11:08;101229.94;;;22.73;58.39
73063;BME280;61230;46.328;19.972;2023-08-12T07:13:35;101216.97;;;22.89;59.24
73063;BME280;61230;46.328;19.972;2023-08-12T07:16:03;101213.03;;;22.85;57.00
73063;BME280;61230;46.328;19.972;2023-08-12T07:18:31;101222.34;;;22.96;53.49
73063;BME280;61230;46.328;19.972;2023-08-12T07:20:58;101214.78;;;23.13;53.51
73063;BME280;61230;46.328;19.972;2023-08-12T07:23:27;101179.09;;;22.65;54.31
73063;BME280;61230;46.328;19.972;2023-08-12T07:25:55;101215.00;;;23.31;53.77
73063;BME280;61230;46.328;19.972;2023-08-12T07:28:22;101186.91;;;23.33;54.06
73063;BME280;61230;46.328;19.972;2023-08-12T07:30:50;101221.91;;;23.66;53.91
73063;BME280;61230;46.328;19.972;2023-08-12T07:33:19;101223.13;;;23.90;53.78
73063;BME280;61230;46.328;19.972;2023-08-12T07:35:47;101226.06;;;23.75;53.17
73063;BME280;61230;46.328;19.972;2023-08-12T07:38:14;101219.22;;;23.86;54.08
73063;BME280;61230;46.328;19.972;2023-08-12T07:40:42;101188.16;;;23.96;53.59
73063;BME280;61230;46.328;19.972;2023-08-12T07:43:09;101224.56;;;24.19;52.38
73063;BME280;61230;46.328;19.972;2023-08-12T07:45:37;101227.06;;;23.94;52.03
73063;BME280;61230;46.328;19.972;2023-08-12T07:48:05;101230.16;;;23.91;50.53
73063;BME280;61230;46.328;19.972;2023-08-12T07:50:33;101218.78;;;24.09;51.17
73063;BME280;61230;46.328;19.972;2023-08-12T07:53:00;101218.97;;;24.07;51.43
73063;BME280;61230;46.328;19.972;2023-08-12T07:55:28;101215.19;;;24.47;51.72
73063;BME280;61230;46.328;19.972;2023-08-12T07:57:56;101221.88;;;24.32;50.86
73063;BME280;61230;46.328;19.972;2023-08-12T08:00:24;101223.47;;;24.46;50.88
73063;BME280;61230;46.328;19.972;2023-08-12T08:02:52;101218.69;;;24.54;50.16
73063;BME280;61230;46.328;19.972;2023-08-12T08:05:19;101185.16;;;24.50;50.32
73063;BME280;61230;46.328;19.972;2023-08-12T08:07:47;101208.62;;;24.88;49.37
73063;BME280;61230;46.328;19.972;2023-08-12T08:10:15;101214.78;;;25.01;49.24
73063;BME280;61230;46.328;19.972;2023-08-12T08:12:43;101213.59;;;24.91;48.29
73063;BME280;61230;46.328;19.972;2023-08-12T08:15:10;101213.09;;;25.07;46.71
73063;BME280;61230;46.328;19.972;2023-08-12T08:17:38;101213.94;;;25.01;47.18
73063;BME280;61230;46.328;19.972;2023-08-12T08:20:06;101211.62;;;25.11;47.67
73063;BME280;61230;46.328;19.972;2023-08-12T08:22:34;101212.87;;;25.08;45.95
73063;BME280;61230;46.328;19.972;2023-08-12T08:25:02;101204.47;;;25.23;46.23
73063;BME280;61230;46.328;19.972;2023-08-12T08:27:30;101210.00;;;25.03;45.22
73063;BME280;61230;46.328;19.972;2023-08-12T08:29:59;101210.66;;;24.99;46.34
73063;BME280;61230;46.328;19.972;2023-08-12T08:32:27;101211.25;;;25.32;44.91
73063;BME280;61230;46.328;19.972;2023-08-12T08:34:54;101174.38;;;25.33;44.97
73063;BME280;61230;46.328;19.972;2023-08-12T08:37:22;101213.75;;;25.34;43.91
73063;BME280;61230;46.328;19.972;2023-08-12T08:39:50;101211.34;;;25.82;44.20
73063;BME280;61230;46.328;19.972;2023-08-12T08:42:19;101209.81;;;26.10;44.02
73063;BME280;61230;46.328;19.972;2023-08-12T08:44:52;101205.56;;;26.21;45.08
73063;BME280;61230;46.328;19.972;2023-08-12T08:47:25;101210.59;;;25.93;43.62
73063;BME280;61230;46.328;19.972;2023-08-12T08:49:55;101203.16;;;26.13;43.60
73063;BME280;61230;46.328;19.972;2023-08-12T08:52:24;101203.19;;;26.06;43.65
73063;BME280;61230;46.328;19.972;2023-08-12T08:54:52;101204.78;;;25.71;43.64
73063;BME280;61230;46.328;19.972;2023-08-12T08:57:20;101183.75;;;25.55;44.76
73063;BME280;61230;46.328;19.972;2023-08-12T09:00:06;101197.56;;;25.90;44.70
73063;BME280;61230;46.328;19.972;2023-08-12T09:02:41;101169.69;;;25.53;43.63
73063;BME280;61230;46.328;19.972;2023-08-12T09:05:11;101198.22;;;25.85;43.00
73063;BME280;61230;46.328;19.972;2023-08-12T09:07:42;101195.78;;;26.02;43.55
73063;BME280;61230;46.328;19.972;2023-08-12T09:10:10;101192.84;;;26.28;41.40
73063;BME280;61230;46.328;19.972;2023-08-12T09:12:43;101190.94;;;26.28;42.02
73063;BME280;61230;46.328;19.972;2023-08-12T09:15:10;101197.09;;;26.54;41.88
73063;BME280;61230;46.328;19.972;2023-08-12T09:17:38;101160.00;;;26.31;41.59
73063;BME280;61230;46.328;19.972;2023-08-12T09:20:06;101187.00;;;26.97;42.02
73063;BME280;61230;46.328;19.972;2023-08-12T09:22:42;101189.63;;;25.95;42.75
73063;BME280;61230;46.328;19.972;2023-08-12T09:25:10;101187.88;;;25.82;42.85
73063;BME280;61230;46.328;19.972;2023-08-12T09:27:38;101179.63;;;26.20;41.79
73063;BME280;61230;46.328;19.972;2023-08-12T09:30:06;101171.94;;;26.42;43.86
73063;BME280;61230;46.328;19.972;2023-08-12T09:32:35;101171.16;;;26.53;41.74
73063;BME280;61230;46.328;19.972;2023-08-12T09:35:03;101179.63;;;26.56;43.21
73063;BME280;61230;46.328;19.972;2023-08-12T09:37:33;101178.19;;;26.72;42.11
73063;BME280;61230;46.328;19.972;2023-08-12T09:40:01;101172.41;;;26.87;42.03
73063;BME280;61230;46.328;19.972;2023-08-12T09:42:32;101152.00;;;26.72;41.73
73063;BME280;61230;46.328;19.972;2023-08-12T09:45:00;101173.53;;;27.09;40.40
73063;BME280;61230;46.328;19.972;2023-08-12T09:47:29;101133.75;;;26.86;39.54
73063;BME280;61230;46.328;19.972;2023-08-12T09:49:56;101164.72;;;27.43;40.23
73063;BME280;61230;46.328;19.972;2023-08-12T09:52:24;101164.47;;;26.55;40.29
73063;BME280;61230;46.328;19.972;2023-08-12T09:54:53;101160.69;;;26.93;41.83
73063;BME280;61230;46.328;19.972;2023-08-12T09:57:25;101164.56;;;26.49;40.23
73063;BME280;61230;46.328;19.972;2023-08-12T09:59:53;101159.72;;;27.28;39.31
73063;BME280;61230;46.328;19.972;2023-08-12T10:02:22;101160.34;;;27.42;39.53
73063;BME280;61230;46.328;19.972;2023-08-12T10:04:50;101150.41;;;26.83;38.70
73063;BME280;61230;46.328;19.972;2023-08-12T10:07:21;101150.28;;;27.72;37.98
73063;BME280;61230;46.328;19.972;2023-08-12T10:09:48;101150.59;;;27.99;37.42
73063;BME280;61230;46.328;19.972;2023-08-12T10:12:17;101147.53;;;28.19;37.41
73063;BME280;61230;46.328;19.972;2023-08-12T10:14:46;101146.13;;;27.81;36.89
73063;BME280;61230;46.328;19.972;2023-08-12T10:17:15;101141.66;;;28.22;37.07
73063;BME280;61230;46.328;19.972;2023-08-12T10:19:56;101144.34;;;27.98;37.23
73063;BME280;61230;46.328;19.972;2023-08-12T10:22:27;101143.84;;;27.32;39.49
73063;BME280;61230;46.328;19.972;2023-08-12T10:25:02;101102.97;;;28.10;37.05
73063;BME280;61230;46.328;19.972;2023-08-12T10:27:30;101123.69;;;28.44;35.68
73063;BME280;61230;46.328;19.972;2023-08-12T10:29:58;101138.47;;;28.25;37.02
73063;BME280;61230;46.328;19.972;2023-08-12T10:32:25;101135.19;;;28.00;35.74
73063;BME280;61230;46.328;19.972;2023-08-12T10:34:58;101136.50;;;28.09;36.79
73063;BME280;61230;46.328;19.972;2023-08-12T10:37:27;101131.03;;;27.27;37.63
73063;BME280;61230;46.328;19.972;2023-08-12T10:39:55;101125.84;;;28.30;35.61
73063;BME280;61230;46.328;19.972;2023-08-12T10:42:43;101126.78;;;28.36;35.46
73063;BME280;61230;46.328;19.972;2023-08-12T10:45:13;101118.34;;;28.32;33.31
73063;BME280;61230;46.328;19.972;2023-08-12T10:47:42;101114.78;;;28.72;33.28
73063;BME280;61230;46.328;19.972;2023-08-12T10:50:22;101106.56;;;29.12;33.25
73063;BME280;61230;46.328;19.972;2023-08-12T10:52:53;101118.53;;;28.99;34.46
73063;BME280;61230;46.328;19.972;2023-08-12T10:55:23;101108.31;;;29.34;33.30
73063;BME280;61230;46.328;19.972;2023-08-12T10:57:53;101085.44;;;28.01;35.13
73063;BME280;61230;46.328;19.972;2023-08-12T11:00:25;101112.75;;;28.39;35.70
73063;BME280;61230;46.328;19.972;2023-08-12T11:02:57;101119.09;;;28.44;33.23
73063;BME280;61230;46.328;19.972;2023-08-12T11:05:36;101121.44;;;27.89;34.10
73063;BME280;61230;46.328;19.972;2023-08-12T11:08:05;101106.47;;;28.10;33.15
73063;BME280;61230;46.328;19.972;2023-08-12T11:10:34;101106.41;;;28.73;32.91
73063;BME280;61230;46.328;19.972;2023-08-12T11:13:03;101102.78;;;29.29;33.62
73063;BME280;61230;46.328;19.972;2023-08-12T11:15:42;101075.00;;;27.34;34.46
73063;BME280;61230;46.328;19.972;2023-08-12T11:18:15;101074.31;;;28.65;34.17
73063;BME280;61230;46.328;19.972;2023-08-12T11:20:44;101094.87;;;28.94;33.28
73063;BME280;61230;46.328;19.972;2023-08-12T11:23:12;101077.00;;;28.65;33.83
73063;BME280;61230;46.328;19.972;2023-08-12T11:25:42;101094.44;;;28.69;34.15
73063;BME280;61230;46.328;19.972;2023-08-12T11:28:09;101076.47;;;28.80;32.89
73063;BME280;61230;46.328;19.972;2023-08-12T11:30:40;101077.78;;;29.11;33.64
73063;BME280;61230;46.328;19.972;2023-08-12T11:33:09;101080.66;;;29.21;33.98
73063;BME280;61230;46.328;19.972;2023-08-12T11:35:37;101073.09;;;28.89;33.01
73063;BME280;61230;46.328;19.972;2023-08-12T11:38:05;101073.94;;;29.78;32.70
73063;BME280;61230;46.328;19.972;2023-08-12T11:40:34;101057.34;;;28.86;32.72
73063;BME280;61230;46.328;19.972;2023-08-12T11:43:02;101070.06;;;28.69;33.25
73063;BME280;61230;46.328;19.972;2023-08-12T11:45:33;101060.75;;;28.37;35.02
73063;BME280;61230;46.328;19.972;2023-08-12T11:48:01;101039.69;;;27.87;34.12
73063;BME280;61230;46.328;19.972;2023-08-12T11:50:28;101073.69;;;27.83;34.50
73063;BME280;61230;46.328;19.972;2023-08-12T11:52:56;101064.94;;;28.16;33.42
73063;BME280;61230;46.328;19.972;2023-08-12T11:55:24;101060.87;;;29.20;32.22
73063;BME280;61230;46.328;19.972;2023-08-12T11:57:52;101064.63;;;29.52;30.71
73063;BME280;61230;46.328;19.972;2023-08-12T12:00:21;101058.97;;;28.87;32.46
73063;BME280;61230;46.328;19.972;2023-08-12T12:02:53;101056.38;;;28.36;33.42
73063;BME280;61230;46.328;19.972;2023-08-12T12:05:30;101057.09;;;29.04;33.04
73063;BME280;61230;46.328;19.972;2023-08-12T12:08:01;101052.78;;;29.58;33.14
73063;BME280;61230;46.328;19.972;2023-08-12T12:10:30;101046.25;;;29.76;30.62
73063;BME280;61230;46.328;19.972;2023-08-12T12:13:03;101040.66;;;28.78;31.07
73063;BME280;61230;46.328;19.972;2023-08-12T12:15:38;101035.28;;;29.49;31.31
73063;BME280;61230;46.328;19.972;2023-08-12T12:18:13;101040.66;;;29.44;30.54
73063;BME280;61230;46.328;19.972;2023-08-12T12:20:59;101032.44;;;29.39;31.07
73063;BME280;61230;46.328;19.972;2023-08-12T12:23:28;101034.34;;;29.05;31.42
73063;BME280;61230;46.328;19.972;2023-08-12T12:26:00;101032.88;;;28.53;32.41
73063;BME280;61230;46.328;19.972;2023-08-12T12:28:28;101036.78;;;28.74;33.60
73063;BME280;61230;46.328;19.972;2023-08-12T12:30:55;101025.81;;;28.80;32.17
73063;BME280;61230;46.328;19.972;2023-08-12T12:33:23;101027.00;;;28.73;33.58
73063;BME280;61230;46.328;19.972;2023-08-12T12:35:50;101020.53;;;28.90;32.32
73063;BME280;61230;46.328;19.972;2023-08-12T12:38:27;100990.84;;;28.50;32.81
73063;BME280;61230;46.328;19.972;2023-08-12T12:40:56;100997.44;;;28.55;32.17
73063;BME280;61230;46.328;19.972;2023-08-12T12:43:24;101021.09;;;28.92;31.48
73063;BME280;61230;46.328;19.972;2023-08-12T12:45:51;101020.78;;;28.72;31.36